createdAt,value
2022-11-11T00:01:16.925Z,0.60
2022-11-11T00:03:44.068Z,1.40
2022-11-11T00:06:13.595Z,1.25
2022-11-11T00:08:40.986Z,1.73
2022-11-11T00:11:10.302Z,1.30
2022-11-11T00:13:38.255Z,1.20
2022-11-11T00:16:17.375Z,1.02
2022-11-11T00:19:04.136Z,1.30
2022-11-11T00:21:47.075Z,1.17
2022-11-11T00:24:39.142Z,1.10
2022-11-11T00:27:06.764Z,1.30
2022-11-11T00:29:34.138Z,1.17
2022-11-11T00:32:19.530Z,1.63
2022-11-11T00:35:06.322Z,1.63
2022-11-11T00:37:34.426Z,1.27
2022-11-11T00:40:01.768Z,1.50
2022-11-11T00:42:28.684Z,1.60
2022-11-11T00:44:55.988Z,1.63
2022-11-11T00:47:41.616Z,2.35
2022-11-11T00:50:40.970Z,2.30
2022-11-11T00:53:25.979Z,2.45
2022-11-11T00:55:54.558Z,2.35
2022-11-11T00:58:23.148Z,2.33
2022-11-11T01:00:53.791Z,3.95
2022-11-11T01:03:22.229Z,3.03
2022-11-11T01:05:49.727Z,3.17
2022-11-11T01:08:16.717Z,4.00
2022-11-11T01:10:43.848Z,3.90
2022-11-11T01:13:18.842Z,3.83
2022-11-11T01:15:51.134Z,4.28
2022-11-11T01:18:23.333Z,4.05
2022-11-11T01:21:04.591Z,4.25
2022-11-11T01:23:33.277Z,4.50
2022-11-11T01:26:03.710Z,4.90
2022-11-11T01:28:31.224Z,4.95
2022-11-11T01:31:06.292Z,4.85
2022-11-11T01:33:33.584Z,5.05
2022-11-11T01:36:08.035Z,4.80
2022-11-11T01:38:35.484Z,4.85
2022-11-11T01:41:22.619Z,4.90
2022-11-11T01:43:49.519Z,5.68
2022-11-11T01:46:35.667Z,4.63
2022-11-11T01:49:21.729Z,5.10
2022-11-11T01:52:09.842Z,6.05
2022-11-11T01:54:49.249Z,4.85
2022-11-11T01:57:22.833Z,4.47
2022-11-11T02:00:00.544Z,4.68
2022-11-11T02:02:42.812Z,5.43
2022-11-11T02:05:32.595Z,5.40
2022-11-11T02:08:32.644Z,4.97
2022-11-11T02:11:04.224Z,4.90
2022-11-11T02:13:50.362Z,5.07
2022-11-11T02:16:17.201Z,6.20
2022-11-11T02:18:44.271Z,5.22
2022-11-11T02:21:18.895Z,5.80
2022-11-11T02:24:04.859Z,5.53
2022-11-11T02:26:34.885Z,5.35
2022-11-11T02:29:05.285Z,5.00
2022-11-11T02:31:32.742Z,5.40
2022-11-11T02:33:59.687Z,5.55
2022-11-11T02:36:27.140Z,5.10
2022-11-11T02:38:54.665Z,5.68
2022-11-11T02:41:40.185Z,6.15
2022-11-11T02:44:07.153Z,5.70
2022-11-11T02:46:34.142Z,5.45
2022-11-11T02:49:01.034Z,5.43
2022-11-11T02:51:27.750Z,5.60
2022-11-11T02:53:59.098Z,5.50
2022-11-11T02:56:44.593Z,5.47
2022-11-11T02:59:11.528Z,5.22
2022-11-11T03:01:38.354Z,6.30
2022-11-11T03:04:05.762Z,6.30
2022-11-11T03:06:32.837Z,5.38
2022-11-11T03:08:59.747Z,6.22
2022-11-11T03:11:29.161Z,5.90
2022-11-11T03:13:57.374Z,6.03
2022-11-11T03:16:43.223Z,5.72
2022-11-11T03:19:10.525Z,5.65
2022-11-11T03:22:52.855Z,5.82
2022-11-11T03:24:25.286Z,6.20
2022-11-11T03:26:51.915Z,5.72
2022-11-11T03:29:18.679Z,5.80
2022-11-11T03:31:45.402Z,5.85
2022-11-11T03:34:18.310Z,5.70
2022-11-11T03:37:04.325Z,5.85
2022-11-11T03:39:31.105Z,5.72
2022-11-11T03:41:58.066Z,6.07
2022-11-11T03:44:24.807Z,5.22
2022-11-11T03:46:51.535Z,5.63
2022-11-11T03:49:18.204Z,5.82
2022-11-11T03:51:44.894Z,5.40
2022-11-11T03:54:11.639Z,5.22
2022-11-11T03:56:38.396Z,5.57
2022-11-11T03:59:05.083Z,5.03
2022-11-11T04:01:50.498Z,5.00
2022-11-11T04:04:35.653Z,5.05
2022-11-11T04:07:21.105Z,5.70
2022-11-11T04:10:06.463Z,4.78
2022-11-11T04:12:56.314Z,5.63
2022-11-11T04:15:41.613Z,5.32
2022-11-11T04:18:08.294Z,4.35
2022-11-11T04:20:53.679Z,6.00
2022-11-11T04:23:20.503Z,4.25
2022-11-11T04:25:50.357Z,4.88
2022-11-11T04:28:35.626Z,4.78
2022-11-11T04:31:02.363Z,4.78
2022-11-11T04:33:29.066Z,4.40
2022-11-11T04:35:55.727Z,5.45
2022-11-11T04:38:40.981Z,4.38
2022-11-11T04:41:09.037Z,4.50
2022-11-11T04:43:55.765Z,5.05
2022-11-11T04:46:22.474Z,4.47
2022-11-11T04:48:49.285Z,5.03
2022-11-11T04:51:15.903Z,4.38
2022-11-11T04:53:42.736Z,5.53
2022-11-11T04:56:28.003Z,4.85
2022-11-11T04:59:14.764Z,5.20
2022-11-11T05:01:59.981Z,4.93
2022-11-11T05:04:26.864Z,5.20
2022-11-11T05:07:12.346Z,4.60
2022-11-11T05:09:39.111Z,4.38
2022-11-11T05:12:06.175Z,5.28
2022-11-11T05:14:51.357Z,4.32
2022-11-11T05:17:36.914Z,4.90
2022-11-11T05:20:22.397Z,4.45
2022-11-11T05:22:49.166Z,5.10
2022-11-11T05:25:30.710Z,5.38
2022-11-11T05:27:58.054Z,5.10
2022-11-11T05:30:26.439Z,5.18
2022-11-11T05:32:55.892Z,5.45
2022-11-11T05:35:22.636Z,4.78
2022-11-11T05:38:09.363Z,5.10
2022-11-11T05:40:36.214Z,5.55
2022-11-11T05:43:02.823Z,5.80
2022-11-11T05:45:29.514Z,5.28
2022-11-11T05:48:01.107Z,5.82
2022-11-11T05:52:56.231Z,5.95
2022-11-11T05:55:23.223Z,6.82
2022-11-11T05:57:49.986Z,5.82
2022-11-11T06:00:17.495Z,5.65
2022-11-11T06:02:44.230Z,5.60
2022-11-11T06:05:10.832Z,6.00
2022-11-11T06:07:39.698Z,6.22
2022-11-11T06:10:25.506Z,5.72
2022-11-11T06:13:10.398Z,5.50
2022-11-11T06:15:38.169Z,5.82
2022-11-11T06:18:06.367Z,5.85
2022-11-11T06:20:36.934Z,5.57
2022-11-11T06:23:05.213Z,5.85
2022-11-11T06:25:52.548Z,5.78
2022-11-11T06:28:19.945Z,5.45
2022-11-11T06:30:51.037Z,5.47
2022-11-11T06:33:20.176Z,5.07
2022-11-11T06:35:47.912Z,5.78
2022-11-11T06:38:14.900Z,5.38
2022-11-11T06:40:44.983Z,4.90
2022-11-11T06:43:11.936Z,5.18
2022-11-11T06:45:38.915Z,5.32
2022-11-11T06:48:06.197Z,5.28
2022-11-11T06:50:33.544Z,5.30
2022-11-11T06:53:14.654Z,5.72
2022-11-11T06:55:41.572Z,5.20
2022-11-11T06:58:10.985Z,5.97
2022-11-11T07:00:39.089Z,5.10
2022-11-11T07:03:07.741Z,4.53
2022-11-11T07:05:34.678Z,5.18
2022-11-11T07:08:05.579Z,4.97
2022-11-11T07:10:34.297Z,4.90
2022-11-11T07:13:00.943Z,5.32
2022-11-11T07:15:28.104Z,4.95
2022-11-11T07:17:54.714Z,5.53
2022-11-11T07:20:21.469Z,5.18
2022-11-11T07:22:48.380Z,5.75
2022-11-11T07:25:15.309Z,4.78
2022-11-11T07:27:42.898Z,5.55
2022-11-11T07:30:12.094Z,4.93
2022-11-11T07:32:50.269Z,5.28
2022-11-11T07:35:17.958Z,5.50
2022-11-11T07:37:45.255Z,4.95
2022-11-11T07:40:14.772Z,4.80
2022-11-11T07:42:42.697Z,4.97
2022-11-11T07:45:11.056Z,6.03
2022-11-11T07:47:37.839Z,5.13
2022-11-11T07:50:08.109Z,5.05
2022-11-11T07:52:37.413Z,5.10
2022-11-11T07:55:05.929Z,5.85
2022-11-11T07:57:32.790Z,5.07
2022-11-11T07:59:59.719Z,5.18
2022-11-11T08:02:26.478Z,6.10
2022-11-11T08:04:55.858Z,5.65
2022-11-11T08:07:24.167Z,5.20
2022-11-11T08:09:52.036Z,5.90
2022-11-11T08:12:37.454Z,6.35
2022-11-11T08:15:08.376Z,5.60
2022-11-11T08:17:41.913Z,5.72
2022-11-11T08:20:09.766Z,5.95
2022-11-11T08:22:38.077Z,6.25
2022-11-11T08:25:08.159Z,6.20
2022-11-11T08:27:36.142Z,6.28
2022-11-11T08:30:04.276Z,5.93
2022-11-11T08:32:30.946Z,6.07
2022-11-11T08:34:57.590Z,5.88
2022-11-11T08:37:24.332Z,6.32
2022-11-11T08:39:52.418Z,6.75
2022-11-11T08:42:19.541Z,6.78
2022-11-11T08:44:46.939Z,6.95
2022-11-11T08:47:13.613Z,6.20
2022-11-11T08:49:40.446Z,7.70
2022-11-11T08:52:07.208Z,7.15
2022-11-11T08:54:34.096Z,7.10
2022-11-11T08:57:00.924Z,7.13
2022-11-11T08:59:27.628Z,6.55
2022-11-11T09:01:54.231Z,6.50
2022-11-11T09:04:53.022Z,6.55
2022-11-11T09:07:09.363Z,6.43
2022-11-11T09:09:36.403Z,6.88
2022-11-11T09:12:03.648Z,6.95
2022-11-11T09:14:30.606Z,6.03
2022-11-11T09:16:57.435Z,7.03
2022-11-11T09:19:24.255Z,7.63
2022-11-11T09:21:52.920Z,7.18
2022-11-11T09:24:19.808Z,6.65
2022-11-11T09:26:50.604Z,7.53
2022-11-11T09:29:18.244Z,7.22
2022-11-11T09:31:46.396Z,7.60
2022-11-11T09:34:14.584Z,7.03
2022-11-11T09:36:42.238Z,6.10
2022-11-11T09:39:09.222Z,6.25
2022-11-11T09:41:55.762Z,6.53
2022-11-11T09:44:27.854Z,7.75
2022-11-11T09:47:12.594Z,8.35
2022-11-11T09:49:46.129Z,6.97
2022-11-11T09:52:20.837Z,7.15
2022-11-11T09:54:55.941Z,6.07
2022-11-11T09:57:39.519Z,6.78
2022-11-11T10:00:23.147Z,7.68
2022-11-11T10:02:53.972Z,6.78
2022-11-11T10:05:29.885Z,6.88
2022-11-11T10:08:06.506Z,6.95
2022-11-11T10:10:50.748Z,6.07
2022-11-11T10:13:28.175Z,6.80
2022-11-11T10:16:00.905Z,6.82
2022-11-11T10:18:50.372Z,6.90
2022-11-11T10:21:26.546Z,7.22
2022-11-11T10:23:59.783Z,7.40
2022-11-11T10:26:52.868Z,7.43
2022-11-11T10:29:26.359Z,7.63
2022-11-11T10:32:06.014Z,7.40
2022-11-11T10:34:34.433Z,7.65
2022-11-11T10:37:02.261Z,7.55
2022-11-11T10:39:48.472Z,8.18
2022-11-11T10:42:18.059Z,7.95
2022-11-11T10:44:45.402Z,8.07
2022-11-11T10:47:29.855Z,7.63
2022-11-11T10:50:10.265Z,7.53
2022-11-11T10:52:41.363Z,8.00
2022-11-11T10:55:23.013Z,7.72
2022-11-11T10:58:24.785Z,8.23
2022-11-11T11:00:56.860Z,8.40
2022-11-11T11:03:36.642Z,8.00
2022-11-11T11:06:06.345Z,9.07
2022-11-11T11:08:44.574Z,9.20
2022-11-11T11:11:20.798Z,8.43
2022-11-11T11:13:57.986Z,8.45
2022-11-11T11:16:29.273Z,9.45
2022-11-11T11:19:19.354Z,9.00
2022-11-11T11:22:00.024Z,9.00
2022-11-11T11:24:29.405Z,9.50
2022-11-11T11:26:58.597Z,9.73
2022-11-11T11:29:33.062Z,8.65
2022-11-11T11:32:17.725Z,9.80
2022-11-11T11:34:50.072Z,10.10
2022-11-11T11:37:19.375Z,10.73
2022-11-11T11:39:46.522Z,9.20
2022-11-11T11:42:33.049Z,10.10
2022-11-11T11:45:24.648Z,9.75
2022-11-11T11:51:28.882Z,10.02
2022-11-11T11:54:10.660Z,9.70
2022-11-11T11:56:38.912Z,10.40
2022-11-11T11:59:21.387Z,10.18
2022-11-11T12:01:55.781Z,10.95
2022-11-11T12:04:22.474Z,11.10
2022-11-11T12:07:13.292Z,10.73
2022-11-11T12:10:04.025Z,9.77
2022-11-11T12:12:48.293Z,10.38
2022-11-11T12:15:29.983Z,10.98
2022-11-11T12:18:09.103Z,10.25
2022-11-11T12:20:38.779Z,10.73
2022-11-11T12:23:37.801Z,9.30
2022-11-11T12:26:24.560Z,9.82
2022-11-11T12:29:15.384Z,9.38
2022-11-11T12:32:10.397Z,9.05
2022-11-11T12:34:54.857Z,10.25
2022-11-11T12:37:27.567Z,8.98
2022-11-11T12:40:04.624Z,9.50
2022-11-11T12:42:37.336Z,8.95
2022-11-11T12:45:17.489Z,8.02
2022-11-11T12:48:09.918Z,8.93
2022-11-11T12:51:02.963Z,8.05
2022-11-11T12:54:01.603Z,8.63
2022-11-11T12:56:51.727Z,7.80
2022-11-11T12:59:36.750Z,8.05
2022-11-11T13:02:24.765Z,8.35
2022-11-11T13:05:00.536Z,9.32
2022-11-11T13:07:48.505Z,8.68
2022-11-11T13:10:51.984Z,8.95
2022-11-11T13:13:49.118Z,7.57
2022-11-11T13:16:19.475Z,7.22
2022-11-11T13:19:00.691Z,7.88
2022-11-11T13:21:42.753Z,7.95
2022-11-11T13:24:15.219Z,7.93
2022-11-11T13:26:49.612Z,8.82
2022-11-11T13:29:43.825Z,7.47
2022-11-11T13:32:14.328Z,6.93
2022-11-11T13:34:42.330Z,7.78
2022-11-11T13:37:29.899Z,7.10
2022-11-11T13:40:10.285Z,8.13
2022-11-11T13:42:41.005Z,8.00
2022-11-11T13:45:19.853Z,8.48
2022-11-11T13:47:47.630Z,9.20
2022-11-11T13:50:31.751Z,9.60
2022-11-11T13:53:07.320Z,9.15
2022-11-11T13:55:39.990Z,8.60
2022-11-11T14:00:38.904Z,8.75
2022-11-11T14:03:25.894Z,8.00
2022-11-11T14:06:14.724Z,8.88
2022-11-11T14:08:47.425Z,8.55
2022-11-11T14:11:26.367Z,8.23
2022-11-11T14:13:54.237Z,8.48
2022-11-11T14:16:33.159Z,9.00
2022-11-11T14:18:59.898Z,9.35
2022-11-11T14:21:59.156Z,9.25
2022-11-11T14:24:34.162Z,8.45
2022-11-11T14:27:03.624Z,9.32
2022-11-11T14:29:36.467Z,9.18
2022-11-11T14:32:12.195Z,9.00
2022-11-11T14:34:42.090Z,9.77
2022-11-11T14:37:17.980Z,9.30
2022-11-11T14:39:50.693Z,10.00
2022-11-11T14:42:35.766Z,10.82
2022-11-11T14:45:04.034Z,9.77
2022-11-11T14:47:32.355Z,9.60
2022-11-11T14:49:59.932Z,10.00
2022-11-11T14:52:26.620Z,9.77
2022-11-11T14:55:02.534Z,9.90
2022-11-11T14:58:10.350Z,9.32
2022-11-11T15:01:00.414Z,10.02
2022-11-11T15:03:31.224Z,10.88
2022-11-11T15:06:03.673Z,10.13
2022-11-11T15:08:52.071Z,10.50
2022-11-11T15:11:36.967Z,11.70
2022-11-11T15:14:21.411Z,10.40
2022-11-11T15:17:03.188Z,10.65
2022-11-11T15:19:48.121Z,9.90
2022-11-11T15:22:36.077Z,10.50
2022-11-11T15:25:08.985Z,9.95
2022-11-11T15:27:42.060Z,10.88
2022-11-11T15:30:21.362Z,10.70
2022-11-11T15:33:21.142Z,10.52
2022-11-11T15:35:54.103Z,10.15
2022-11-11T15:38:21.096Z,10.95
2022-11-11T15:40:50.672Z,10.98
2022-11-11T15:43:21.378Z,10.82
2022-11-11T15:45:58.343Z,10.95
2022-11-11T15:48:30.221Z,11.98
2022-11-11T15:50:57.033Z,11.40
2022-11-11T15:53:27.326Z,10.95
2022-11-11T15:55:56.333Z,11.43
2022-11-11T15:58:29.586Z,11.48
2022-11-11T16:00:58.423Z,11.35
2022-11-11T16:03:41.014Z,10.40
2022-11-11T16:06:11.497Z,12.10
2022-11-11T16:08:42.346Z,11.70
2022-11-11T16:11:13.878Z,11.18
2022-11-11T16:13:47.682Z,11.82
2022-11-11T16:16:21.842Z,11.68
2022-11-11T16:19:00.097Z,11.70
2022-11-11T16:22:02.890Z,12.18
2022-11-11T16:24:34.937Z,14.43
2022-11-11T16:27:04.811Z,13.30
2022-11-11T16:29:38.119Z,13.05
2022-11-11T16:32:23.658Z,11.80
2022-11-11T16:34:54.409Z,11.93
2022-11-11T16:37:21.926Z,10.52
2022-11-11T16:39:48.943Z,12.02
2022-11-11T16:42:22.753Z,12.70
2022-11-11T16:44:55.074Z,11.25
2022-11-11T16:47:28.135Z,11.73
2022-11-11T16:50:03.999Z,11.15
2022-11-11T16:52:38.739Z,12.07
2022-11-11T16:55:06.552Z,11.75
2022-11-11T16:57:34.245Z,11.27
2022-11-11T17:00:04.992Z,11.05
2022-11-11T17:02:32.211Z,11.27
2022-11-11T17:04:58.983Z,12.20
2022-11-11T17:07:31.901Z,12.38
2022-11-11T17:10:07.860Z,12.07
2022-11-11T17:12:37.565Z,11.88
2022-11-11T17:15:05.581Z,11.13
2022-11-11T17:17:32.898Z,11.60
2022-11-11T17:20:06.067Z,12.70
2022-11-11T17:22:33.065Z,13.25
2022-11-11T17:24:59.831Z,11.93
2022-11-11T17:27:30.677Z,11.70
2022-11-11T17:29:58.078Z,11.98
2022-11-11T17:32:24.838Z,11.85
2022-11-11T17:34:51.608Z,12.25
2022-11-11T17:37:18.360Z,12.27
2022-11-11T17:39:45.421Z,11.50
2022-11-11T17:42:12.397Z,11.50
2022-11-11T17:44:39.376Z,11.60
2022-11-11T17:47:06.330Z,10.93
2022-11-11T17:49:55.610Z,11.60
2022-11-11T17:52:19.911Z,10.30
2022-11-11T17:54:46.778Z,11.82
2022-11-11T17:57:13.459Z,11.20
2022-11-11T17:59:40.150Z,11.55
2022-11-11T18:02:07.161Z,11.57
2022-11-11T18:04:34.130Z,11.23
2022-11-11T18:07:01.053Z,11.50
2022-11-11T18:09:27.905Z,9.57
2022-11-11T18:11:54.597Z,9.93
2022-11-11T18:14:21.284Z,10.18
2022-11-11T18:16:48.013Z,9.38
2022-11-11T18:19:14.817Z,9.07
2022-11-11T18:21:42.371Z,10.02
2022-11-11T18:24:12.124Z,10.27
2022-11-11T18:26:39.094Z,9.65
2022-11-11T18:29:07.979Z,9.48
2022-11-11T18:31:35.346Z,8.75
2022-11-11T18:34:02.069Z,8.68
2022-11-11T18:36:28.981Z,8.52
2022-11-11T18:38:56.535Z,9.48
2022-11-11T18:41:24.157Z,7.88
2022-11-11T18:43:52.146Z,7.45
2022-11-11T18:46:21.413Z,7.53
2022-11-11T18:48:48.873Z,7.88
2022-11-11T18:51:17.420Z,7.75
2022-11-11T18:53:44.443Z,7.38
2022-11-11T18:56:17.918Z,6.95
2022-11-11T18:58:55.021Z,8.23
2022-11-11T19:01:25.117Z,6.40
2022-11-11T19:03:53.289Z,6.40
2022-11-11T19:06:23.234Z,5.93
2022-11-11T19:08:58.561Z,5.85
2022-11-11T19:11:26.665Z,5.93
2022-11-11T19:13:53.818Z,5.57
2022-11-11T19:16:23.966Z,5.68
2022-11-11T19:18:52.113Z,5.82
2022-11-11T19:21:24.354Z,5.55
2022-11-11T19:23:53.972Z,5.60
2022-11-11T19:26:21.938Z,5.00
2022-11-11T19:28:48.870Z,5.53
2022-11-11T19:31:17.729Z,5.43
2022-11-11T19:33:46.423Z,4.55
2022-11-11T19:36:18.886Z,4.90
2022-11-11T19:38:47.656Z,4.63
2022-11-11T19:41:19.504Z,4.97
2022-11-11T19:43:46.624Z,4.30
2022-11-11T19:46:16.222Z,4.43
2022-11-11T19:48:43.958Z,4.47
2022-11-11T19:51:13.516Z,4.10
2022-11-11T19:53:40.601Z,4.82
2022-11-11T19:56:09.770Z,4.30
2022-11-11T19:58:37.037Z,4.72
2022-11-11T20:01:11.915Z,4.60
2022-11-11T20:03:39.845Z,4.28
2022-11-11T20:06:18.659Z,5.18
2022-11-11T20:08:45.283Z,4.63
2022-11-11T20:11:12.088Z,4.45
2022-11-11T20:13:42.589Z,4.78
2022-11-11T20:16:10.259Z,4.88
2022-11-11T20:18:37.098Z,4.85
2022-11-11T20:21:06.415Z,5.13
2022-11-11T20:23:41.057Z,4.85
2022-11-11T20:26:10.563Z,5.03
2022-11-11T20:28:37.500Z,4.80
2022-11-11T20:31:16.267Z,5.00
2022-11-11T20:33:43.488Z,6.50
2022-11-11T20:36:12.861Z,5.05
2022-11-11T20:38:40.044Z,5.20
2022-11-11T20:41:13.234Z,5.63
2022-11-11T20:43:40.376Z,6.00
2022-11-11T20:46:12.763Z,5.22
2022-11-11T20:48:41.534Z,6.05
2022-11-11T20:51:35.537Z,5.38
2022-11-11T20:54:02.228Z,5.90
2022-11-11T20:56:29.625Z,6.75
2022-11-11T20:58:56.777Z,5.18
2022-11-11T21:01:25.791Z,5.55
2022-11-11T21:03:57.761Z,5.50
2022-11-11T21:06:25.549Z,5.75
2022-11-11T21:08:52.963Z,6.25
2022-11-11T21:11:22.000Z,5.97
2022-11-11T21:13:52.152Z,6.07
2022-11-11T21:16:29.367Z,5.95
2022-11-11T21:18:57.208Z,6.18
2022-11-11T21:21:25.462Z,6.78
2022-11-11T21:23:59.503Z,6.57
2022-11-11T21:26:26.759Z,6.25
2022-11-11T21:28:54.150Z,7.15
2022-11-11T21:31:23.639Z,7.18
2022-11-11T21:33:51.841Z,6.60
2022-11-11T21:36:19.826Z,7.35
2022-11-11T21:38:46.851Z,8.32
2022-11-11T21:41:16.645Z,7.30
2022-11-11T21:43:44.098Z,7.28
2022-11-11T21:46:14.346Z,7.82
2022-11-11T21:48:41.504Z,8.13
2022-11-11T21:51:12.653Z,8.13
2022-11-11T21:53:42.836Z,7.70
2022-11-11T21:56:14.080Z,8.32
2022-11-11T21:58:41.992Z,8.05
2022-11-11T22:01:14.199Z,8.45
2022-11-11T22:03:42.273Z,9.15
2022-11-11T22:06:12.181Z,8.70
2022-11-11T22:08:39.411Z,8.65
2022-11-11T22:11:09.498Z,8.35
2022-11-11T22:13:38.362Z,9.38
2022-11-11T22:16:16.919Z,8.95
2022-11-11T22:18:44.809Z,9.25
2022-11-11T22:21:20.868Z,9.20
2022-11-11T22:23:50.050Z,8.82
2022-11-11T22:26:18.182Z,9.20
2022-11-11T22:28:49.740Z,8.75
2022-11-11T22:31:23.116Z,9.68
2022-11-11T22:33:57.350Z,10.73
2022-11-11T22:36:24.064Z,9.70
2022-11-11T22:38:50.998Z,10.00
2022-11-11T22:41:22.420Z,10.27
2022-11-11T22:44:05.021Z,9.52
2022-11-11T22:46:33.572Z,10.38
2022-11-11T22:49:05.719Z,10.27
2022-11-11T22:51:33.732Z,8.95
2022-11-11T22:54:06.460Z,9.35
2022-11-11T22:56:34.762Z,10.68
2022-11-11T22:59:04.446Z,9.60
2022-11-11T23:01:32.352Z,10.27
2022-11-11T23:04:01.329Z,9.63
2022-11-11T23:06:35.621Z,9.98
2022-11-11T23:09:02.858Z,10.70
2022-11-11T23:11:31.123Z,10.20
2022-11-11T23:14:03.357Z,10.07
2022-11-11T23:16:31.262Z,9.85
2022-11-11T23:18:59.377Z,10.63
2022-11-11T23:21:28.536Z,10.40
2022-11-11T23:23:56.143Z,9.88
2022-11-11T23:26:25.888Z,10.00
2022-11-11T23:28:53.076Z,10.52
2022-11-11T23:31:22.751Z,9.48
2022-11-11T23:33:51.522Z,10.23
2022-11-11T23:36:20.527Z,9.35
2022-11-11T23:38:48.268Z,9.15
2022-11-11T23:41:15.030Z,9.85
2022-11-11T23:43:41.993Z,9.68
2022-11-11T23:46:09.505Z,8.55
2022-11-11T23:48:37.070Z,9.27
2022-11-11T23:51:04.186Z,9.02
2022-11-11T23:53:32.039Z,8.88
2022-11-11T23:55:58.832Z,9.13
2022-11-11T23:58:26.554Z,9.63
